Idabel, Oklahoma
Current Conditions -  °F | °C
As of 8:35 AM on Sunday 23 Nov 2014 (Local Time) from K4O4 Reporting Station
Overcast Overcast  
Wind Chill: 59°   Ceiling: 1500
Heat Index: 59°   Visibility: 5mi
Dew Point: 55°   Wind: 3mph
Humidity: 88%   Direction: 100°E
Pressure: 29.58"   Gusts: NA
Location:  33.9°N, 94.83°W
Report Text: K4O4 231435Z AUTO 10003KT 5SM SCT005 OVC015 15/13 A2958 RMK AO2
Loading
Personal Weather Stations






























Interactive Weather Map New forecast layout! Learn more

10-Day Weather Forecast

Advertisements
Track Severe Weather on mobile